sensor_id;sensor_type;location;lat;lon;timestamp;P1;durP1;ratioP1;P2;durP2;ratioP2
32214;SDS011;18708;53.124;23.190;2022-09-17T00:00:13;7.53;;;4.32;;
32214;SDS011;18708;53.124;23.190;2022-09-17T00:02:39;6.70;;;4.68;;
32214;SDS011;18708;53.124;23.190;2022-09-17T00:05:11;13.27;;;5.65;;
32214;SDS011;18708;53.124;23.190;2022-09-17T00:07:36;10.80;;;5.28;;
32214;SDS011;18708;53.124;23.190;2022-09-17T00:10:02;8.23;;;5.22;;
32214;SDS011;18708;53.124;23.190;2022-09-17T00:12:29;7.18;;;5.63;;
32214;SDS011;18708;53.124;23.190;2022-09-17T00:14:55;7.82;;;5.10;;
32214;SDS011;18708;53.124;23.190;2022-09-17T00:17:21;7.15;;;4.35;;
32214;SDS011;18708;53.124;23.190;2022-09-17T00:19:47;9.50;;;5.40;;
32214;SDS011;18708;53.124;23.190;2022-09-17T00:22:14;6.03;;;4.80;;
32214;SDS011;18708;53.124;23.190;2022-09-17T00:24:40;6.43;;;4.90;;
32214;SDS011;18708;53.124;23.190;2022-09-17T00:27:06;5.63;;;4.43;;
32214;SDS011;18708;53.124;23.190;2022-09-17T00:29:32;9.70;;;5.88;;
32214;SDS011;18708;53.124;23.190;2022-09-17T00:31:57;8.10;;;5.05;;
32214;SDS011;18708;53.124;23.190;2022-09-17T00:34:23;7.30;;;5.47;;
32214;SDS011;18708;53.124;23.190;2022-09-17T00:36:49;9.68;;;5.50;;
32214;SDS011;18708;53.124;23.190;2022-09-17T00:39:15;8.77;;;5.00;;
32214;SDS011;18708;53.124;23.190;2022-09-17T00:41:41;7.47;;;6.10;;
32214;SDS011;18708;53.124;23.190;2022-09-17T00:47:01;7.77;;;5.60;;
32214;SDS011;18708;53.124;23.190;2022-09-17T00:49:28;9.98;;;5.22;;
32214;SDS011;18708;53.124;23.190;2022-09-17T00:52:03;10.82;;;6.25;;
32214;SDS011;18708;53.124;23.190;2022-09-17T00:54:32;11.07;;;6.07;;
32214;SDS011;18708;53.124;23.190;2022-09-17T00:56:59;10.38;;;5.65;;
32214;SDS011;18708;53.124;23.190;2022-09-17T00:59:25;6.85;;;4.97;;
32214;SDS011;18708;53.124;23.190;2022-09-17T01:01:52;8.52;;;5.43;;
32214;SDS011;18708;53.124;23.190;2022-09-17T01:04:19;7.57;;;5.50;;
32214;SDS011;18708;53.124;23.190;2022-09-17T01:34:40;8.60;;;5.80;;
32214;SDS011;18708;53.124;23.190;2022-09-17T01:37:17;9.98;;;6.03;;
32214;SDS011;18708;53.124;23.190;2022-09-17T01:39:55;9.43;;;6.10;;
32214;SDS011;18708;53.124;23.190;2022-09-17T01:42:26;9.15;;;5.70;;
32214;SDS011;18708;53.124;23.190;2022-09-17T01:50:04;10.02;;;5.63;;
32214;SDS011;18708;53.124;23.190;2022-09-17T01:52:35;8.82;;;4.82;;
32214;SDS011;18708;53.124;23.190;2022-09-17T01:55:06;7.25;;;5.00;;
32214;SDS011;18708;53.124;23.190;2022-09-17T01:57:37;8.68;;;5.63;;
32214;SDS011;18708;53.124;23.190;2022-09-17T02:00:11;6.85;;;5.15;;
32214;SDS011;18708;53.124;23.190;2022-09-17T02:02:44;6.88;;;4.78;;
32214;SDS011;18708;53.124;23.190;2022-09-17T02:05:15;7.18;;;5.25;;
32214;SDS011;18708;53.124;23.190;2022-09-17T02:07:56;6.53;;;4.45;;
32214;SDS011;18708;53.124;23.190;2022-09-17T02:10:32;5.35;;;4.32;;
32214;SDS011;18708;53.124;23.190;2022-09-17T02:13:01;7.50;;;5.13;;
32214;SDS011;18708;53.124;23.190;2022-09-17T02:15:33;7.93;;;5.35;;
32214;SDS011;18708;53.124;23.190;2022-09-17T02:18:12;7.07;;;5.00;;
32214;SDS011;18708;53.124;23.190;2022-09-17T02:21:10;7.97;;;6.20;;
32214;SDS011;18708;53.124;23.190;2022-09-17T02:24:04;7.60;;;5.22;;
32214;SDS011;18708;53.124;23.190;2022-09-17T02:26:37;7.70;;;4.65;;
32214;SDS011;18708;53.124;23.190;2022-09-17T02:29:07;5.40;;;4.60;;
32214;SDS011;18708;53.124;23.190;2022-09-17T02:31:37;7.32;;;4.90;;
32214;SDS011;18708;53.124;23.190;2022-09-17T02:34:06;7.25;;;4.97;;
32214;SDS011;18708;53.124;23.190;2022-09-17T02:36:33;6.55;;;5.05;;
32214;SDS011;18708;53.124;23.190;2022-09-17T02:38:59;8.45;;;5.03;;
32214;SDS011;18708;53.124;23.190;2022-09-17T02:41:35;7.47;;;5.43;;
32214;SDS011;18708;53.124;23.190;2022-09-17T02:44:21;11.35;;;5.03;;
32214;SDS011;18708;53.124;23.190;2022-09-17T02:56:08;9.00;;;4.85;;
32214;SDS011;18708;53.124;23.190;2022-09-17T03:04:29;7.53;;;5.15;;
32214;SDS011;18708;53.124;23.190;2022-09-17T03:06:57;10.50;;;5.60;;
32214;SDS011;18708;53.124;23.190;2022-09-17T03:09:24;11.27;;;5.07;;
32214;SDS011;18708;53.124;23.190;2022-09-17T03:11:50;8.80;;;5.70;;
32214;SDS011;18708;53.124;23.190;2022-09-17T03:14:16;9.25;;;5.82;;
32214;SDS011;18708;53.124;23.190;2022-09-17T03:16:44;8.20;;;5.45;;
32214;SDS011;18708;53.124;23.190;2022-09-17T03:19:10;12.15;;;5.95;;
32214;SDS011;18708;53.124;23.190;2022-09-17T03:21:36;12.95;;;5.65;;
32214;SDS011;18708;53.124;23.190;2022-09-17T03:24:02;12.15;;;6.78;;
32214;SDS011;18708;53.124;23.190;2022-09-17T03:26:27;6.82;;;5.43;;
32214;SDS011;18708;53.124;23.190;2022-09-17T03:28:53;6.93;;;5.78;;
32214;SDS011;18708;53.124;23.190;2022-09-17T03:31:19;9.70;;;6.18;;
32214;SDS011;18708;53.124;23.190;2022-09-17T03:33:44;7.82;;;6.07;;
32214;SDS011;18708;53.124;23.190;2022-09-17T03:36:10;8.50;;;5.95;;
32214;SDS011;18708;53.124;23.190;2022-09-17T03:38:36;10.30;;;5.80;;
32214;SDS011;18708;53.124;23.190;2022-09-17T03:41:03;8.93;;;6.25;;
32214;SDS011;18708;53.124;23.190;2022-09-17T03:43:31;9.45;;;6.22;;
32214;SDS011;18708;53.124;23.190;2022-09-17T03:45:57;6.85;;;5.50;;
32214;SDS011;18708;53.124;23.190;2022-09-17T03:48:22;10.60;;;6.78;;
32214;SDS011;18708;53.124;23.190;2022-09-17T03:50:48;8.77;;;6.10;;
32214;SDS011;18708;53.124;23.190;2022-09-17T03:53:14;12.88;;;7.93;;
32214;SDS011;18708;53.124;23.190;2022-09-17T03:55:40;11.20;;;6.85;;
32214;SDS011;18708;53.124;23.190;2022-09-17T03:58:06;10.85;;;6.80;;
32214;SDS011;18708;53.124;23.190;2022-09-17T04:00:32;11.00;;;6.97;;
32214;SDS011;18708;53.124;23.190;2022-09-17T04:03:01;8.25;;;5.88;;
32214;SDS011;18708;53.124;23.190;2022-09-17T04:05:30;9.05;;;6.28;;
32214;SDS011;18708;53.124;23.190;2022-09-17T04:07:57;10.43;;;7.32;;
32214;SDS011;18708;53.124;23.190;2022-09-17T04:10:22;10.55;;;7.85;;
32214;SDS011;18708;53.124;23.190;2022-09-17T04:12:49;10.32;;;7.20;;
32214;SDS011;18708;53.124;23.190;2022-09-17T04:15:14;9.30;;;6.85;;
32214;SDS011;18708;53.124;23.190;2022-09-17T04:17:40;13.77;;;7.93;;
32214;SDS011;18708;53.124;23.190;2022-09-17T04:20:06;9.68;;;7.13;;
32214;SDS011;18708;53.124;23.190;2022-09-17T04:22:32;13.32;;;7.75;;
32214;SDS011;18708;53.124;23.190;2022-09-17T04:24:58;10.35;;;6.90;;
32214;SDS011;18708;53.124;23.190;2022-09-17T04:27:24;12.05;;;7.00;;
32214;SDS011;18708;53.124;23.190;2022-09-17T04:29:51;10.57;;;7.60;;
32214;SDS011;18708;53.124;23.190;2022-09-17T04:32:17;15.88;;;8.55;;
32214;SDS011;18708;53.124;23.190;2022-09-17T04:34:43;12.27;;;9.32;;
32214;SDS011;18708;53.124;23.190;2022-09-17T04:37:08;14.02;;;9.98;;
32214;SDS011;18708;53.124;23.190;2022-09-17T04:39:34;16.38;;;10.20;;
32214;SDS011;18708;53.124;23.190;2022-09-17T04:42:01;13.60;;;9.45;;
32214;SDS011;18708;53.124;23.190;2022-09-17T04:44:27;14.65;;;10.55;;
32214;SDS011;18708;53.124;23.190;2022-09-17T04:46:53;15.73;;;8.82;;
32214;SDS011;18708;53.124;23.190;2022-09-17T04:49:19;13.60;;;9.60;;
32214;SDS011;18708;53.124;23.190;2022-09-17T04:51:44;15.52;;;9.30;;
32214;SDS011;18708;53.124;23.190;2022-09-17T04:54:10;12.27;;;8.80;;
32214;SDS011;18708;53.124;23.190;2022-09-17T04:56:35;10.30;;;8.35;;
32214;SDS011;18708;53.124;23.190;2022-09-17T04:59:01;13.35;;;7.88;;
32214;SDS011;18708;53.124;23.190;2022-09-17T05:01:27;11.88;;;9.48;;
32214;SDS011;18708;53.124;23.190;2022-09-17T05:03:53;9.80;;;7.93;;
32214;SDS011;18708;53.124;23.190;2022-09-17T05:06:18;11.77;;;8.05;;
32214;SDS011;18708;53.124;23.190;2022-09-17T05:08:44;11.35;;;8.40;;
32214;SDS011;18708;53.124;23.190;2022-09-17T05:11:09;11.65;;;8.48;;
32214;SDS011;18708;53.124;23.190;2022-09-17T05:13:35;10.98;;;8.65;;
32214;SDS011;18708;53.124;23.190;2022-09-17T05:16:01;10.82;;;7.97;;
32214;SDS011;18708;53.124;23.190;2022-09-17T05:18:27;11.02;;;8.95;;
32214;SDS011;18708;53.124;23.190;2022-09-17T05:20:52;12.45;;;7.88;;
32214;SDS011;18708;53.124;23.190;2022-09-17T05:23:18;10.80;;;8.65;;
32214;SDS011;18708;53.124;23.190;2022-09-17T05:25:44;14.40;;;7.68;;
32214;SDS011;18708;53.124;23.190;2022-09-17T05:28:09;13.13;;;7.50;;
32214;SDS011;18708;53.124;23.190;2022-09-17T05:30:35;11.95;;;7.70;;
32214;SDS011;18708;53.124;23.190;2022-09-17T05:33:01;11.02;;;7.10;;
32214;SDS011;18708;53.124;23.190;2022-09-17T05:35:30;11.52;;;7.15;;
32214;SDS011;18708;53.124;23.190;2022-09-17T05:37:59;8.10;;;6.60;;
32214;SDS011;18708;53.124;23.190;2022-09-17T05:40:26;8.63;;;6.15;;
32214;SDS011;18708;53.124;23.190;2022-09-17T05:43:03;9.02;;;6.85;;
32214;SDS011;18708;53.124;23.190;2022-09-17T05:45:31;10.00;;;6.20;;
32214;SDS011;18708;53.124;23.190;2022-09-17T05:47:58;6.88;;;5.18;;
32214;SDS011;18708;53.124;23.190;2022-09-17T05:50:26;7.45;;;5.47;;
32214;SDS011;18708;53.124;23.190;2022-09-17T05:52:52;6.80;;;5.10;;
32214;SDS011;18708;53.124;23.190;2022-09-17T05:55:19;8.55;;;4.72;;
32214;SDS011;18708;53.124;23.190;2022-09-17T05:57:49;6.32;;;4.78;;
32214;SDS011;18708;53.124;23.190;2022-09-17T06:00:15;6.35;;;4.70;;
32214;SDS011;18708;53.124;23.190;2022-09-17T06:02:42;6.15;;;4.15;;
32214;SDS011;18708;53.124;23.190;2022-09-17T06:05:07;7.30;;;4.88;;
32214;SDS011;18708;53.124;23.190;2022-09-17T06:07:34;6.68;;;5.00;;
32214;SDS011;18708;53.124;23.190;2022-09-17T06:10:01;6.90;;;4.85;;
32214;SDS011;18708;53.124;23.190;2022-09-17T06:12:28;8.23;;;5.20;;
32214;SDS011;18708;53.124;23.190;2022-09-17T06:14:53;6.75;;;4.53;;
32214;SDS011;18708;53.124;23.190;2022-09-17T06:17:19;7.57;;;4.40;;
32214;SDS011;18708;53.124;23.190;2022-09-17T06:19:44;8.13;;;4.40;;
32214;SDS011;18708;53.124;23.190;2022-09-17T06:22:10;5.55;;;4.50;;
32214;SDS011;18708;53.124;23.190;2022-09-17T06:24:36;5.32;;;3.85;;
32214;SDS011;18708;53.124;23.190;2022-09-17T06:27:01;5.50;;;3.75;;
32214;SDS011;18708;53.124;23.190;2022-09-17T06:29:27;7.00;;;4.07;;
32214;SDS011;18708;53.124;23.190;2022-09-17T06:31:53;6.55;;;3.50;;
32214;SDS011;18708;53.124;23.190;2022-09-17T06:34:19;4.38;;;3.25;;
32214;SDS011;18708;53.124;23.190;2022-09-17T06:36:45;5.72;;;3.72;;
32214;SDS011;18708;53.124;23.190;2022-09-17T06:39:12;5.82;;;3.60;;
32214;SDS011;18708;53.124;23.190;2022-09-17T06:41:38;5.55;;;3.72;;
32214;SDS011;18708;53.124;23.190;2022-09-17T06:44:06;4.13;;;2.90;;
32214;SDS011;18708;53.124;23.190;2022-09-17T06:46:31;5.82;;;3.15;;
32214;SDS011;18708;53.124;23.190;2022-09-17T06:48:57;7.90;;;3.00;;
32214;SDS011;18708;53.124;23.190;2022-09-17T06:51:23;4.82;;;3.10;;
32214;SDS011;18708;53.124;23.190;2022-09-17T06:53:48;4.90;;;3.22;;
32214;SDS011;18708;53.124;23.190;2022-09-17T06:56:14;5.03;;;3.03;;
32214;SDS011;18708;53.124;23.190;2022-09-17T06:58:40;8.75;;;3.50;;
32214;SDS011;18708;53.124;23.190;2022-09-17T07:01:07;4.03;;;3.08;;
32214;SDS011;18708;53.124;23.190;2022-09-17T07:03:34;9.10;;;3.65;;
32214;SDS011;18708;53.124;23.190;2022-09-17T07:06:00;4.28;;;3.10;;
32214;SDS011;18708;53.124;23.190;2022-09-17T07:08:26;5.53;;;3.38;;
32214;SDS011;18708;53.124;23.190;2022-09-17T07:10:55;6.28;;;2.72;;
32214;SDS011;18708;53.124;23.190;2022-09-17T07:13:21;6.03;;;2.60;;
32214;SDS011;18708;53.124;23.190;2022-09-17T07:15:54;6.63;;;3.08;;
32214;SDS011;18708;53.124;23.190;2022-09-17T07:18:21;11.57;;;3.42;;
32214;SDS011;18708;53.124;23.190;2022-09-17T07:20:51;6.32;;;2.97;;
32214;SDS011;18708;53.124;23.190;2022-09-17T07:23:22;6.90;;;2.65;;
32214;SDS011;18708;53.124;23.190;2022-09-17T07:25:52;6.97;;;3.00;;
32214;SDS011;18708;53.124;23.190;2022-09-17T07:28:22;5.28;;;2.70;;
32214;SDS011;18708;53.124;23.190;2022-09-17T07:30:49;4.93;;;2.60;;
32214;SDS011;18708;53.124;23.190;2022-09-17T07:33:16;6.35;;;2.70;;
32214;SDS011;18708;53.124;23.190;2022-09-17T07:35:57;7.28;;;3.13;;
32214;SDS011;18708;53.124;23.190;2022-09-17T07:38:24;6.47;;;2.80;;
32214;SDS011;18708;53.124;23.190;2022-09-17T07:40:55;5.40;;;2.45;;
32214;SDS011;18708;53.124;23.190;2022-09-17T07:43:22;5.60;;;2.65;;
32214;SDS011;18708;53.124;23.190;2022-09-17T07:45:52;5.68;;;2.53;;
32214;SDS011;18708;53.124;23.190;2022-09-17T07:48:18;5.30;;;2.30;;
32214;SDS011;18708;53.124;23.190;2022-09-17T07:50:44;4.13;;;2.10;;
32214;SDS011;18708;53.124;23.190;2022-09-17T07:53:11;7.80;;;1.80;;
32214;SDS011;18708;53.124;23.190;2022-09-17T07:55:36;5.82;;;2.20;;
32214;SDS011;18708;53.124;23.190;2022-09-17T07:58:02;3.22;;;1.83;;
32214;SDS011;18708;53.124;23.190;2022-09-17T08:00:28;6.68;;;2.60;;
32214;SDS011;18708;53.124;23.190;2022-09-17T08:02:54;4.13;;;2.00;;
32214;SDS011;18708;53.124;23.190;2022-09-17T08:05:20;4.75;;;2.00;;
32214;SDS011;18708;53.124;23.190;2022-09-17T08:07:50;7.35;;;2.38;;
32214;SDS011;18708;53.124;23.190;2022-09-17T08:10:16;7.20;;;2.53;;
32214;SDS011;18708;53.124;23.190;2022-09-17T08:12:49;6.68;;;2.47;;
32214;SDS011;18708;53.124;23.190;2022-09-17T08:15:18;5.35;;;2.22;;
32214;SDS011;18708;53.124;23.190;2022-09-17T08:17:44;7.47;;;2.30;;
32214;SDS011;18708;53.124;23.190;2022-09-17T08:20:14;7.07;;;2.30;;
32214;SDS011;18708;53.124;23.190;2022-09-17T08:22:40;7.63;;;2.67;;
32214;SDS011;18708;53.124;23.190;2022-09-17T08:25:07;6.15;;;2.13;;
32214;SDS011;18708;53.124;23.190;2022-09-17T08:27:34;3.58;;;2.00;;
32214;SDS011;18708;53.124;23.190;2022-09-17T08:30:01;6.65;;;2.00;;
32214;SDS011;18708;53.124;23.190;2022-09-17T08:32:28;4.57;;;1.88;;
32214;SDS011;18708;53.124;23.190;2022-09-17T08:34:54;6.30;;;1.90;;
32214;SDS011;18708;53.124;23.190;2022-09-17T08:37:20;6.38;;;1.70;;
32214;SDS011;18708;53.124;23.190;2022-09-17T08:39:45;5.32;;;2.13;;
32214;SDS011;18708;53.124;23.190;2022-09-17T08:44:41;5.70;;;1.80;;
32214;SDS011;18708;53.124;23.190;2022-09-17T08:47:27;7.15;;;2.05;;
32214;SDS011;18708;53.124;23.190;2022-09-17T08:49:58;5.03;;;1.88;;
32214;SDS011;18708;53.124;23.190;2022-09-17T09:06:50;5.85;;;2.00;;
32214;SDS011;18708;53.124;23.190;2022-09-17T09:09:25;6.25;;;2.00;;
32214;SDS011;18708;53.124;23.190;2022-09-17T09:12:03;4.38;;;1.83;;
32214;SDS011;18708;53.124;23.190;2022-09-17T09:14:45;3.85;;;1.60;;
32214;SDS011;18708;53.124;23.190;2022-09-17T09:17:17;10.13;;;1.95;;
32214;SDS011;18708;53.124;23.190;2022-09-17T09:19:49;4.70;;;1.63;;
32214;SDS011;18708;53.124;23.190;2022-09-17T09:25:26;4.78;;;2.13;;
32214;SDS011;18708;53.124;23.190;2022-09-17T09:28:13;6.13;;;2.38;;
32214;SDS011;18708;53.124;23.190;2022-09-17T09:30:55;6.32;;;2.20;;
32214;SDS011;18708;53.124;23.190;2022-09-17T09:33:30;4.45;;;2.03;;
32214;SDS011;18708;53.124;23.190;2022-09-17T09:35:59;4.90;;;1.98;;
32214;SDS011;18708;53.124;23.190;2022-09-17T09:38:39;5.75;;;1.85;;
32214;SDS011;18708;53.124;23.190;2022-09-17T09:41:21;5.78;;;2.00;;
32214;SDS011;18708;53.124;23.190;2022-09-17T09:43:56;3.93;;;1.67;;
32214;SDS011;18708;53.124;23.190;2022-09-17T09:46:39;5.30;;;1.75;;
32214;SDS011;18708;53.124;23.190;2022-09-17T09:49:45;6.13;;;2.05;;
32214;SDS011;18708;53.124;23.190;2022-09-17T09:57:56;5.95;;;2.10;;
32214;SDS011;18708;53.124;23.190;2022-09-17T10:03:13;9.43;;;1.98;;
32214;SDS011;18708;53.124;23.190;2022-09-17T10:06:01;5.43;;;2.17;;
32214;SDS011;18708;53.124;23.190;2022-09-17T10:08:32;10.43;;;2.28;;
32214;SDS011;18708;53.124;23.190;2022-09-17T10:11:16;3.67;;;1.75;;
32214;SDS011;18708;53.124;23.190;2022-09-17T10:13:45;4.65;;;2.00;;
32214;SDS011;18708;53.124;23.190;2022-09-17T10:18:40;3.47;;;1.80;;
32214;SDS011;18708;53.124;23.190;2022-09-17T10:21:07;5.15;;;1.85;;
32214;SDS011;18708;53.124;23.190;2022-09-17T10:24:24;5.95;;;2.00;;
32214;SDS011;18708;53.124;23.190;2022-09-17T10:26:59;6.32;;;1.80;;
32214;SDS011;18708;53.124;23.190;2022-09-17T10:29:26;4.65;;;1.80;;
32214;SDS011;18708;53.124;23.190;2022-09-17T10:31:53;8.55;;;2.00;;
32214;SDS011;18708;53.124;23.190;2022-09-17T10:34:25;5.63;;;2.00;;
32214;SDS011;18708;53.124;23.190;2022-09-17T10:36:53;4.70;;;2.28;;
32214;SDS011;18708;53.124;23.190;2022-09-17T10:42:05;4.15;;;1.75;;
32214;SDS011;18708;53.124;23.190;2022-09-17T10:44:40;5.38;;;1.65;;
32214;SDS011;18708;53.124;23.190;2022-09-17T10:47:28;6.13;;;2.83;;
32214;SDS011;18708;53.124;23.190;2022-09-17T10:50:32;7.68;;;2.83;;
32214;SDS011;18708;53.124;23.190;2022-09-17T10:53:01;4.53;;;2.40;;
32214;SDS011;18708;53.124;23.190;2022-09-17T10:55:36;4.43;;;2.10;;
32214;SDS011;18708;53.124;23.190;2022-09-17T11:00:52;4.95;;;2.08;;
32214;SDS011;18708;53.124;23.190;2022-09-17T11:06:43;3.60;;;1.58;;
32214;SDS011;18708;53.124;23.190;2022-09-17T11:28:01;5.35;;;2.17;;
32214;SDS011;18708;53.124;23.190;2022-09-17T11:33:27;4.57;;;2.15;;
32214;SDS011;18708;53.124;23.190;2022-09-17T11:36:11;7.05;;;2.70;;
32214;SDS011;18708;53.124;23.190;2022-09-17T11:38:49;5.50;;;2.08;;
32214;SDS011;18708;53.124;23.190;2022-09-17T11:46:57;5.38;;;2.55;;
32214;SDS011;18708;53.124;23.190;2022-09-17T11:52:05;4.57;;;1.85;;
32214;SDS011;18708;53.124;23.190;2022-09-17T11:54:50;4.28;;;1.67;;
32214;SDS011;18708;53.124;23.190;2022-09-17T11:57:27;5.30;;;2.20;;
32214;SDS011;18708;53.124;23.190;2022-09-17T12:02:51;4.60;;;1.83;;
32214;SDS011;18708;53.124;23.190;2022-09-17T12:05:20;4.68;;;2.28;;
32214;SDS011;18708;53.124;23.190;2022-09-17T12:13:46;5.25;;;1.70;;
32214;SDS011;18708;53.124;23.190;2022-09-17T12:24:27;1.88;;;1.42;;
32214;SDS011;18708;53.124;23.190;2022-09-17T12:26:56;2.95;;;1.90;;
32214;SDS011;18708;53.124;23.190;2022-09-17T12:49:57;2.92;;;2.17;;
32214;SDS011;18708;53.124;23.190;2022-09-17T13:01:06;4.93;;;2.75;;
32214;SDS011;18708;53.124;23.190;2022-09-17T13:03:53;3.38;;;2.05;;
32214;SDS011;18708;53.124;23.190;2022-09-17T13:21:52;3.53;;;2.10;;
32214;SDS011;18708;53.124;23.190;2022-09-17T13:24:31;2.63;;;1.95;;
32214;SDS011;18708;53.124;23.190;2022-09-17T13:26:58;4.43;;;2.10;;
32214;SDS011;18708;53.124;23.190;2022-09-17T13:40:21;1.98;;;1.60;;
32214;SDS011;18708;53.124;23.190;2022-09-17T13:42:48;2.08;;;1.65;;
32214;SDS011;18708;53.124;23.190;2022-09-17T13:45:19;3.08;;;2.00;;
32214;SDS011;18708;53.124;23.190;2022-09-17T13:48:03;2.80;;;1.38;;
32214;SDS011;18708;53.124;23.190;2022-09-17T13:50:37;3.22;;;1.60;;
32214;SDS011;18708;53.124;23.190;2022-09-17T13:55:57;2.22;;;2.00;;
32214;SDS011;18708;53.124;23.190;2022-09-17T13:58:29;2.95;;;1.58;;
32214;SDS011;18708;53.124;23.190;2022-09-17T14:24:46;5.47;;;1.90;;
32214;SDS011;18708;53.124;23.190;2022-09-17T14:32:47;3.53;;;1.90;;
32214;SDS011;18708;53.124;23.190;2022-09-17T14:43:39;4.38;;;2.00;;
32214;SDS011;18708;53.124;23.190;2022-09-17T14:46:17;3.28;;;2.10;;
32214;SDS011;18708;53.124;23.190;2022-09-17T14:48:48;2.85;;;1.90;;
32214;SDS011;18708;53.124;23.190;2022-09-17T14:53:47;10.18;;;6.25;;
32214;SDS011;18708;53.124;23.190;2022-09-17T14:56:30;6.88;;;3.55;;
32214;SDS011;18708;53.124;23.190;2022-09-17T14:58:58;3.00;;;2.35;;
32214;SDS011;18708;53.124;23.190;2022-09-17T15:01:25;9.77;;;5.22;;
32214;SDS011;18708;53.124;23.190;2022-09-17T15:09:14;5.10;;;2.70;;
32214;SDS011;18708;53.124;23.190;2022-09-17T15:11:47;7.55;;;3.22;;
32214;SDS011;18708;53.124;23.190;2022-09-17T15:14:17;6.55;;;4.40;;
32214;SDS011;18708;53.124;23.190;2022-09-17T15:16:47;6.55;;;4.03;;
32214;SDS011;18708;53.124;23.190;2022-09-17T15:19:18;3.47;;;3.17;;
32214;SDS011;18708;53.124;23.190;2022-09-17T15:21:57;6.60;;;4.05;;
32214;SDS011;18708;53.124;23.190;2022-09-17T15:24:40;3.50;;;3.20;;
32214;SDS011;18708;53.124;23.190;2022-09-17T15:29:45;5.40;;;3.65;;
32214;SDS011;18708;53.124;23.190;2022-09-17T15:32:17;4.75;;;3.30;;
32214;SDS011;18708;53.124;23.190;2022-09-17T15:34:43;5.30;;;3.90;;
32214;SDS011;18708;53.124;23.190;2022-09-17T15:37:16;9.13;;;5.30;;
32214;SDS011;18708;53.124;23.190;2022-09-17T15:39:48;10.23;;;5.82;;
32214;SDS011;18708;53.124;23.190;2022-09-17T15:42:25;60.47;;;36.00;;
32214;SDS011;18708;53.124;23.190;2022-09-17T15:47:54;41.83;;;19.00;;
32214;SDS011;18708;53.124;23.190;2022-09-17T15:58:23;8.25;;;7.28;;
32214;SDS011;18708;53.124;23.190;2022-09-17T16:01:08;6.35;;;5.15;;
32214;SDS011;18708;53.124;23.190;2022-09-17T16:11:12;8.98;;;5.57;;
32214;SDS011;18708;53.124;23.190;2022-09-17T16:13:38;33.50;;;18.77;;
32214;SDS011;18708;53.124;23.190;2022-09-17T16:16:04;9.48;;;6.60;;
32214;SDS011;18708;53.124;23.190;2022-09-17T16:18:30;12.15;;;5.50;;
32214;SDS011;18708;53.124;23.190;2022-09-17T16:20:56;18.90;;;12.75;;
32214;SDS011;18708;53.124;23.190;2022-09-17T16:23:22;10.23;;;6.15;;
32214;SDS011;18708;53.124;23.190;2022-09-17T16:25:48;8.35;;;5.50;;
32214;SDS011;18708;53.124;23.190;2022-09-17T16:28:15;10.52;;;5.50;;
32214;SDS011;18708;53.124;23.190;2022-09-17T16:30:44;14.45;;;11.52;;
32214;SDS011;18708;53.124;23.190;2022-09-17T16:33:15;29.60;;;17.02;;
32214;SDS011;18708;53.124;23.190;2022-09-17T16:35:42;22.77;;;16.20;;
32214;SDS011;18708;53.124;23.190;2022-09-17T16:38:09;38.25;;;26.30;;
32214;SDS011;18708;53.124;23.190;2022-09-17T16:40:39;117.07;;;81.80;;
32214;SDS011;18708;53.124;23.190;2022-09-17T16:43:06;61.67;;;46.22;;
32214;SDS011;18708;53.124;23.190;2022-09-17T16:45:33;27.02;;;21.83;;
32214;SDS011;18708;53.124;23.190;2022-09-17T16:47:59;18.10;;;14.57;;
32214;SDS011;18708;53.124;23.190;2022-09-17T16:50:25;10.88;;;6.80;;
32214;SDS011;18708;53.124;23.190;2022-09-17T16:52:51;11.00;;;8.30;;
32214;SDS011;18708;53.124;23.190;2022-09-17T16:55:17;31.15;;;20.17;;
32214;SDS011;18708;53.124;23.190;2022-09-17T16:57:44;42.20;;;31.52;;
32214;SDS011;18708;53.124;23.190;2022-09-17T17:00:10;23.90;;;15.50;;
32214;SDS011;18708;53.124;23.190;2022-09-17T17:02:40;12.90;;;11.23;;
32214;SDS011;18708;53.124;23.190;2022-09-17T17:05:06;15.07;;;11.80;;
32214;SDS011;18708;53.124;23.190;2022-09-17T17:07:33;8.75;;;7.22;;
32214;SDS011;18708;53.124;23.190;2022-09-17T17:09:59;10.75;;;8.27;;
32214;SDS011;18708;53.124;23.190;2022-09-17T17:12:26;8.38;;;7.22;;
32214;SDS011;18708;53.124;23.190;2022-09-17T17:14:52;9.07;;;5.88;;
32214;SDS011;18708;53.124;23.190;2022-09-17T17:17:18;7.63;;;5.55;;
32214;SDS011;18708;53.124;23.190;2022-09-17T17:19:44;6.82;;;5.72;;
32214;SDS011;18708;53.124;23.190;2022-09-17T17:22:14;7.18;;;6.28;;
32214;SDS011;18708;53.124;23.190;2022-09-17T17:24:40;14.45;;;11.32;;
32214;SDS011;18708;53.124;23.190;2022-09-17T17:27:06;10.02;;;8.80;;
32214;SDS011;18708;53.124;23.190;2022-09-17T17:29:35;12.50;;;8.85;;
32214;SDS011;18708;53.124;23.190;2022-09-17T17:32:01;13.23;;;10.80;;
32214;SDS011;18708;53.124;23.190;2022-09-17T17:34:28;14.40;;;10.85;;
32214;SDS011;18708;53.124;23.190;2022-09-17T17:36:55;18.00;;;11.02;;
32214;SDS011;18708;53.124;23.190;2022-09-17T17:39:21;17.33;;;12.95;;
32214;SDS011;18708;53.124;23.190;2022-09-17T17:41:47;18.88;;;14.43;;
32214;SDS011;18708;53.124;23.190;2022-09-17T17:44:13;14.98;;;11.07;;
32214;SDS011;18708;53.124;23.190;2022-09-17T17:46:39;14.98;;;11.35;;
32214;SDS011;18708;53.124;23.190;2022-09-17T17:49:05;12.85;;;10.00;;
32214;SDS011;18708;53.124;23.190;2022-09-17T17:51:33;19.23;;;14.32;;
32214;SDS011;18708;53.124;23.190;2022-09-17T17:53:59;19.65;;;12.40;;
32214;SDS011;18708;53.124;23.190;2022-09-17T17:56:26;30.73;;;19.58;;
32214;SDS011;18708;53.124;23.190;2022-09-17T17:58:52;21.52;;;15.30;;
32214;SDS011;18708;53.124;23.190;2022-09-17T18:01:23;22.48;;;15.23;;
32214;SDS011;18708;53.124;23.190;2022-09-17T18:03:54;19.08;;;13.15;;
32214;SDS011;18708;53.124;23.190;2022-09-17T18:06:24;17.90;;;11.82;;
32214;SDS011;18708;53.124;23.190;2022-09-17T18:08:51;20.50;;;15.68;;
32214;SDS011;18708;53.124;23.190;2022-09-17T18:11:17;26.10;;;19.63;;
32214;SDS011;18708;53.124;23.190;2022-09-17T18:13:44;26.88;;;17.10;;
32214;SDS011;18708;53.124;23.190;2022-09-17T18:16:13;18.58;;;14.15;;
32214;SDS011;18708;53.124;23.190;2022-09-17T18:18:42;16.70;;;12.02;;
32214;SDS011;18708;53.124;23.190;2022-09-17T18:21:10;22.27;;;14.38;;
32214;SDS011;18708;53.124;23.190;2022-09-17T18:23:38;37.42;;;22.80;;
32214;SDS011;18708;53.124;23.190;2022-09-17T18:26:06;92.63;;;52.60;;
32214;SDS011;18708;53.124;23.190;2022-09-17T18:28:35;41.17;;;27.35;;
32214;SDS011;18708;53.124;23.190;2022-09-17T18:31:09;30.25;;;19.33;;
32214;SDS011;18708;53.124;23.190;2022-09-17T18:33:53;28.15;;;18.38;;
32214;SDS011;18708;53.124;23.190;2022-09-17T18:36:19;27.88;;;17.98;;
32214;SDS011;18708;53.124;23.190;2022-09-17T18:38:45;32.85;;;19.77;;
32214;SDS011;18708;53.124;23.190;2022-09-17T18:41:11;26.25;;;18.75;;
32214;SDS011;18708;53.124;23.190;2022-09-17T18:43:37;26.45;;;17.90;;
32214;SDS011;18708;53.124;23.190;2022-09-17T18:46:03;22.02;;;16.75;;
32214;SDS011;18708;53.124;23.190;2022-09-17T18:48:30;26.48;;;19.95;;
32214;SDS011;18708;53.124;23.190;2022-09-17T18:53:29;18.65;;;13.10;;
32214;SDS011;18708;53.124;23.190;2022-09-17T18:55:58;13.45;;;10.93;;
32214;SDS011;18708;53.124;23.190;2022-09-17T18:58:33;14.60;;;10.85;;
32214;SDS011;18708;53.124;23.190;2022-09-17T19:00:58;15.07;;;10.60;;
32214;SDS011;18708;53.124;23.190;2022-09-17T19:03:24;14.85;;;10.38;;
32214;SDS011;18708;53.124;23.190;2022-09-17T19:05:51;15.68;;;11.40;;